Terminal Aerodrome Forecast
Issued by NWS Wichita, KS

Home | Current Version | Previous Version | Graphics & Text | Print | Product List | Glossary On
Versions: 1 2 3 4 5 6 7 8 9 10 11 12 13 14 15
000
FTUS43 KICT 282134 AAB
TAFICT
TAF AMD
KICT 282134Z 2822/2918 29015G22KT P6SM BKN090
     FM290300 03007KT P6SM BKN100
     FM290600 VRB03KT P6SM SCT250=

USA.gov is the U.S. government's official web portal to all federal, state and local government web resources and services.